Time;durP1;ratioP1;P1;durP2;ratioP2;P2;SDS_P1;SDS_P2;PMS_P1;PMS_P2;Temp;Humidity;BMP_temperature;BMP_pressure;BME280_temperature;BME280_humidity;BME280_pressure;Samples;Min_cycle;Max_cycle;Signal;HPM_P1;HPM_P2
2021/12/30 00:02:25;;;;;;;24.55;4.80;;;8.30;99.90;;;;;;4981312;28;20549;-77
2021/12/30 00:04:51;;;;;;;16.15;4.55;;;8.30;99.90;;;;;;5007848;28;20172;-77
2021/12/30 00:07:18;;;;;;;13.85;4.65;;;8.30;99.90;;;;;;4984738;28;20078;-80
2021/12/30 00:09:44;;;;;;;18.50;4.68;;;8.40;99.90;;;;;;4999603;28;20053;-78
2021/12/30 00:12:11;;;;;;;10.77;4.50;;;8.40;99.90;;;;;;4991048;28;20067;-79
2021/12/30 00:14:37;;;;;;;15.90;4.85;;;8.30;99.90;;;;;;4983174;28;20045;-79
2021/12/30 00:17:04;;;;;;;18.98;4.07;;;8.30;99.90;;;;;;4984128;28;20062;-78
2021/12/30 00:19:30;;;;;;;15.38;4.47;;;8.20;99.90;;;;;;4990346;28;20050;-78
2021/12/30 00:21:57;;;;;;;21.95;6.28;;;8.20;99.90;;;;;;4981999;28;20046;-78
2021/12/30 00:24:24;;;;;;;16.92;5.35;;;8.20;99.90;;;;;;4979833;28;20058;-79
2021/12/30 00:26:50;;;;;;;23.23;4.82;;;8.30;99.90;;;;;;4989720;28;20410;-78
2021/12/30 00:29:17;;;;;;;25.90;5.03;;;8.20;99.90;;;;;;4981546;28;20508;-79
2021/12/30 00:31:43;;;;;;;16.48;5.18;;;8.20;99.90;;;;;;4980599;28;20054;-79
2021/12/30 00:34:10;;;;;;;28.25;5.68;;;8.20;99.90;;;;;;4981400;28;20051;-79
2021/12/30 00:36:36;;;;;;;19.98;5.38;;;8.30;99.90;;;;;;4988458;28;20057;-79
2021/12/30 00:39:03;;;;;;;22.80;5.22;;;8.30;99.90;;;;;;4993803;28;20498;-79
2021/12/30 00:41:29;;;;;;;21.98;5.40;;;8.30;99.90;;;;;;4988238;28;20054;-79
2021/12/30 00:43:56;;;;;;;30.52;5.95;;;8.30;99.90;;;;;;4983819;28;20062;-78
2021/12/30 00:46:22;;;;;;;37.20;6.47;;;8.30;99.90;;;;;;4993376;28;20387;-79
2021/12/30 00:48:49;;;;;;;26.85;6.15;;;8.30;99.90;;;;;;4996188;28;20075;-78
2021/12/30 00:51:16;;;;;;;17.80;6.18;;;8.30;99.90;;;;;;4986782;28;20092;-80
2021/12/30 00:53:42;;;;;;;28.08;5.85;;;8.20;99.90;;;;;;4981736;28;20051;-77
2021/12/30 00:56:09;;;;;;;37.17;6.05;;;8.30;99.90;;;;;;4989902;28;20056;-78
2021/12/30 00:58:35;;;;;;;26.63;6.72;;;8.30;99.90;;;;;;4996354;28;20058;-79
2021/12/30 01:01:03;;;;;;;28.70;7.85;;;8.30;99.90;;;;;;4990040;28;20042;-79
2021/12/30 01:03:29;;;;;;;33.40;6.60;;;8.30;99.90;;;;;;4983982;28;20113;-77
2021/12/30 01:05:56;;;;;;;28.08;6.63;;;8.40;99.90;;;;;;4975961;28;20057;-79
2021/12/30 01:08:23;;;;;;;27.88;7.10;;;8.30;99.90;;;;;;4985892;28;20051;-79
2021/12/30 01:10:49;;;;;;;21.27;6.25;;;8.30;99.90;;;;;;4991698;28;20061;-79
2021/12/30 01:13:22;;;;;;;37.65;6.60;;;8.30;99.90;;;;;;4989578;28;20046;-78
2021/12/30 01:15:57;;;;;;;25.80;6.43;;;8.20;99.90;;;;;;4977327;28;20075;-79
2021/12/30 01:18:29;;;;;;;26.52;7.72;;;8.20;99.90;;;;;;4981781;28;20050;-79
2021/12/30 01:20:56;;;;;;;34.13;6.68;;;8.20;99.90;;;;;;4995148;28;20481;-79
2021/12/30 01:23:22;;;;;;;31.45;5.75;;;8.20;99.90;;;;;;4986956;28;20417;-78
2021/12/30 01:25:49;;;;;;;32.75;6.55;;;8.20;99.90;;;;;;4993463;28;20054;-79
2021/12/30 01:28:15;;;;;;;26.95;7.38;;;8.20;99.90;;;;;;4984923;28;20065;-79
2021/12/30 01:30:42;;;;;;;36.00;7.30;;;8.20;99.90;;;;;;4990054;28;20488;-79
2021/12/30 01:33:08;;;;;;;35.30;6.70;;;8.20;99.90;;;;;;4994862;28;20506;-78
2021/12/30 01:35:35;;;;;;;24.23;6.40;;;8.20;99.90;;;;;;4993725;28;20050;-79
2021/12/30 01:38:02;;;;;;;41.30;9.50;;;8.20;99.90;;;;;;4998660;28;20058;-79
2021/12/30 01:40:29;;;;;;;41.55;8.05;;;8.20;99.90;;;;;;4986837;28;20074;-78
2021/12/30 01:42:55;;;;;;;31.17;6.10;;;8.10;99.90;;;;;;4988100;28;20054;-79
2021/12/30 01:45:22;;;;;;;26.35;6.15;;;8.10;99.90;;;;;;4984344;28;20053;-81
2021/12/30 01:47:51;;;;;;;35.55;7.53;;;8.00;99.90;;;;;;4986577;28;20057;-79
2021/12/30 01:50:17;;;;;;;27.38;7.18;;;8.00;99.90;;;;;;5004872;28;20056;-79
2021/12/30 01:52:44;;;;;;;33.78;7.50;;;8.00;99.90;;;;;;4992486;28;20058;-79
2021/12/30 01:55:10;;;;;;;39.65;8.93;;;7.90;99.90;;;;;;4988508;28;20042;-79
2021/12/30 01:57:37;;;;;;;28.35;6.93;;;7.80;99.90;;;;;;4997046;28;20413;-79
2021/12/30 02:00:03;;;;;;;28.80;7.93;;;7.80;99.90;;;;;;4989892;28;20054;-79
2021/12/30 02:02:30;;;;;;;40.75;8.63;;;7.80;99.90;;;;;;4982884;28;20149;-79
2021/12/30 02:04:57;;;;;;;42.88;9.15;;;7.80;99.90;;;;;;4984416;28;20055;-79
2021/12/30 02:07:23;;;;;;;33.45;9.10;;;7.80;99.90;;;;;;4988679;28;20450;-80
2021/12/30 02:09:50;;;;;;;37.05;9.13;;;7.70;99.90;;;;;;4991189;28;20058;-79
2021/12/30 02:12:17;;;;;;;43.00;8.68;;;7.70;99.90;;;;;;4987874;28;20129;-79
2021/12/30 02:14:43;;;;;;;35.13;8.13;;;7.70;99.90;;;;;;4992071;28;20061;-79
2021/12/30 02:17:10;;;;;;;43.67;9.48;;;7.60;99.90;;;;;;4992924;28;20054;-79
2021/12/30 02:19:37;;;;;;;41.78;9.40;;;7.60;99.90;;;;;;4990746;28;20054;-79
2021/12/30 02:22:03;;;;;;;42.75;9.73;;;7.60;99.90;;;;;;4989105;28;20046;-79
2021/12/30 02:24:30;;;;;;;34.47;9.05;;;7.60;99.90;;;;;;4992362;28;20442;-79
2021/12/30 02:26:56;;;;;;;39.50;9.35;;;7.60;99.90;;;;;;4988887;28;20500;-79
2021/12/30 02:29:23;;;;;;;49.38;9.73;;;7.70;99.90;;;;;;4991566;28;20046;-79
2021/12/30 02:31:49;;;;;;;35.78;8.82;;;7.70;99.90;;;;;;5001984;28;20410;-79
2021/12/30 02:34:16;;;;;;;52.28;9.93;;;7.70;99.90;;;;;;4988584;28;20050;-79
2021/12/30 02:36:43;;;;;;;53.25;12.00;;;7.70;99.90;;;;;;4988334;28;20078;-79
2021/12/30 02:39:09;;;;;;;44.47;10.27;;;7.80;99.90;;;;;;4993110;28;20038;-79
2021/12/30 02:41:37;;;;;;;52.30;11.15;;;7.80;99.90;;;;;;4986944;28;20054;-79
2021/12/30 02:44:04;;;;;;;35.78;8.70;;;7.80;99.90;;;;;;5008813;28;20510;-79
2021/12/30 02:46:30;;;;;;;38.38;10.10;;;7.80;99.90;;;;;;5005671;28;20050;-79
2021/12/30 02:48:57;;;;;;;47.88;10.00;;;7.80;99.90;;;;;;4993567;28;20046;-79
2021/12/30 02:51:24;;;;;;;31.10;9.38;;;7.80;99.90;;;;;;4986829;28;20054;-79
2021/12/30 02:53:50;;;;;;;47.80;9.02;;;7.90;99.90;;;;;;4998677;28;20077;-78
2021/12/30 02:56:17;;;;;;;43.63;9.20;;;7.80;99.90;;;;;;4995106;28;20057;-79
2021/12/30 02:58:43;;;;;;;35.08;8.43;;;7.80;99.90;;;;;;4994623;28;20054;-78
2021/12/30 03:01:10;;;;;;;53.42;8.40;;;7.80;99.90;;;;;;4989601;28;20054;-80
2021/12/30 03:03:36;;;;;;;35.72;9.18;;;7.80;99.90;;;;;;4994520;28;20057;-79
2021/12/30 03:06:03;;;;;;;41.20;9.85;;;7.80;99.90;;;;;;4994944;28;20069;-78
2021/12/30 03:08:29;;;;;;;47.58;9.48;;;7.80;99.90;;;;;;5008362;28;20053;-80
2021/12/30 03:10:56;;;;;;;32.63;7.97;;;7.70;99.90;;;;;;4984379;28;20045;-78
2021/12/30 03:13:30;;;;;;;34.90;8.57;;;7.70;99.90;;;;;;4989306;28;20468;-78
2021/12/30 03:15:56;;;;;;;24.42;7.25;;;7.80;99.90;;;;;;4983222;28;20050;-79
2021/12/30 03:18:23;;;;;;;39.40;9.25;;;7.80;99.90;;;;;;4981140;28;20113;-79
2021/12/30 03:20:49;;;;;;;30.40;8.40;;;7.70;99.90;;;;;;4981801;28;20046;-79
2021/12/30 03:23:16;;;;;;;27.70;9.05;;;7.70;99.90;;;;;;4984173;28;20046;-79
2021/12/30 03:25:42;;;;;;;33.70;7.88;;;7.80;99.90;;;;;;4991087;28;20052;-79
2021/12/30 03:28:09;;;;;;;34.45;8.50;;;7.70;99.90;;;;;;5007710;28;20061;-78
2021/12/30 03:30:35;;;;;;;40.05;9.13;;;7.80;99.90;;;;;;5012502;28;20061;-79
2021/12/30 03:33:02;;;;;;;44.33;8.25;;;7.70;99.90;;;;;;4988162;28;20046;-79
2021/12/30 03:35:28;;;;;;;33.40;7.88;;;7.80;99.90;;;;;;5008889;28;20169;-79
2021/12/30 03:37:56;;;;;;;25.65;7.93;;;7.80;99.90;;;;;;4985316;28;20058;-79
2021/12/30 03:40:23;;;;;;;37.65;9.57;;;7.80;99.90;;;;;;4991139;28;20045;-78
2021/12/30 03:42:49;;;;;;;33.45;8.52;;;7.80;99.90;;;;;;4984468;28;20814;-79
2021/12/30 03:45:16;;;;;;;41.10;9.25;;;7.80;99.90;;;;;;4988207;28;20054;-79
2021/12/30 03:47:44;;;;;;;48.15;9.15;;;7.90;99.90;;;;;;4994309;28;20046;-79
2021/12/30 03:50:12;;;;;;;33.15;8.00;;;7.90;99.90;;;;;;4986553;28;20128;-79
2021/12/30 03:52:39;;;;;;;37.22;8.50;;;7.90;99.90;;;;;;4989918;28;20481;-79
2021/12/30 03:55:06;;;;;;;54.85;11.15;;;7.90;99.90;;;;;;4979948;28;20046;-79
2021/12/30 03:57:32;;;;;;;46.10;10.65;;;7.90;99.90;;;;;;5011502;28;20417;-80
2021/12/30 03:59:59;;;;;;;51.55;11.10;;;7.90;99.90;;;;;;4988598;28;20612;-79
2021/12/30 04:02:25;;;;;;;62.00;13.45;;;7.90;99.90;;;;;;4990900;28;20489;-79
2021/12/30 04:04:52;;;;;;;44.58;12.60;;;7.90;99.90;;;;;;4977501;28;20058;-79
2021/12/30 04:07:18;;;;;;;51.78;12.00;;;7.90;99.90;;;;;;4998836;28;20058;-79
2021/12/30 04:09:45;;;;;;;57.08;12.85;;;7.90;99.90;;;;;;4985774;28;20068;-79
2021/12/30 04:12:11;;;;;;;41.25;11.63;;;7.90;99.90;;;;;;4993757;28;20049;-79
2021/12/30 04:14:38;;;;;;;55.65;14.13;;;7.90;99.90;;;;;;4980414;28;20057;-80
2021/12/30 04:17:05;;;;;;;45.92;14.95;;;8.00;99.90;;;;;;4999016;28;20414;-79
2021/12/30 04:19:32;;;;;;;49.20;14.82;;;8.00;99.90;;;;;;4991108;28;20394;-79
2021/12/30 04:21:58;;;;;;;52.10;15.02;;;8.00;99.90;;;;;;4987398;28;20436;-80
2021/12/30 04:24:25;;;;;;;49.35;13.90;;;8.10;99.90;;;;;;4994496;28;20089;-80
2021/12/30 04:26:51;;;;;;;58.88;15.43;;;8.10;99.90;;;;;;4983261;28;20054;-79
2021/12/30 04:29:18;;;;;;;40.10;13.77;;;8.00;99.90;;;;;;4989173;28;20064;-77
2021/12/30 04:31:45;;;;;;;52.25;15.35;;;8.10;99.90;;;;;;4993627;28;20046;-79
2021/12/30 04:34:11;;;;;;;44.17;16.30;;;8.10;99.90;;;;;;4983888;28;20054;-78
2021/12/30 04:36:38;;;;;;;56.45;16.90;;;8.10;99.90;;;;;;4992888;28;20057;-80
2021/12/30 04:39:04;;;;;;;43.08;16.55;;;8.20;99.90;;;;;;4994334;28;20060;-79
2021/12/30 04:41:31;;;;;;;48.28;17.10;;;8.20;99.90;;;;;;4992544;28;20061;-79
2021/12/30 04:43:57;;;;;;;58.13;16.90;;;8.20;99.90;;;;;;4988246;28;20774;-79
2021/12/30 04:46:24;;;;;;;63.00;16.95;;;8.20;99.90;;;;;;5004865;28;20046;-79
2021/12/30 04:48:51;;;;;;;55.05;15.40;;;8.30;99.90;;;;;;4989323;28;20065;-80
2021/12/30 04:51:17;;;;;;;63.97;17.23;;;8.30;99.90;;;;;;4983383;28;20463;-79
2021/12/30 04:53:44;;;;;;;56.10;15.13;;;8.30;99.90;;;;;;4984161;28;20088;-79
2021/12/30 04:56:10;;;;;;;47.15;15.60;;;8.40;99.90;;;;;;4992038;28;20054;-80
2021/12/30 04:58:37;;;;;;;55.33;16.23;;;8.40;99.90;;;;;;4981531;28;20057;-80
2021/12/30 05:01:03;;;;;;;47.70;15.60;;;8.40;99.90;;;;;;4986075;28;20054;-79
2021/12/30 05:03:30;;;;;;;49.33;14.27;;;8.50;99.90;;;;;;4993750;28;20050;-80
2021/12/30 05:05:56;;;;;;;65.00;14.95;;;8.50;99.90;;;;;;5010142;28;20057;-79
2021/12/30 05:08:23;;;;;;;61.50;17.00;;;8.50;99.90;;;;;;4987221;28;20057;-79
2021/12/30 05:10:49;;;;;;;47.45;15.27;;;8.50;99.90;;;;;;4981369;28;20394;-79
2021/12/30 05:13:16;;;;;;;57.28;14.50;;;8.50;99.90;;;;;;4990105;28;20056;-78
2021/12/30 05:15:43;;;;;;;41.33;14.48;;;8.60;99.90;;;;;;4980762;28;20413;-80
2021/12/30 05:18:09;;;;;;;55.05;13.52;;;8.60;99.90;;;;;;4991543;28;20049;-80
2021/12/30 05:20:36;;;;;;;50.30;14.77;;;8.70;99.90;;;;;;4986338;28;20050;-81
2021/12/30 05:23:02;;;;;;;74.60;16.92;;;8.70;99.90;;;;;;4992503;28;20058;-80
2021/12/30 05:25:29;;;;;;;63.38;15.68;;;8.70;99.90;;;;;;4989979;28;20058;-79
2021/12/30 05:27:55;;;;;;;57.00;16.88;;;8.70;99.90;;;;;;4990891;28;20038;-79
2021/12/30 05:30:22;;;;;;;56.72;14.73;;;8.70;99.90;;;;;;5006042;28;20058;-79
2021/12/30 05:32:49;;;;;;;60.83;14.30;;;8.80;99.90;;;;;;4978585;28;20063;-78
2021/12/30 05:35:15;;;;;;;52.92;15.75;;;8.80;99.90;;;;;;4988879;28;20049;-79
2021/12/30 05:37:42;;;;;;;66.72;18.63;;;9.00;99.90;;;;;;4978163;28;20058;-80
2021/12/30 05:40:08;;;;;;;64.10;17.65;;;9.00;99.90;;;;;;4989305;28;20050;-79
2021/12/30 05:42:35;;;;;;;54.70;16.92;;;9.00;99.90;;;;;;4992310;28;21863;-79
2021/12/30 05:45:02;;;;;;;72.65;16.23;;;9.10;99.90;;;;;;4980055;28;20319;-79
2021/12/30 05:47:28;;;;;;;48.72;16.38;;;9.10;99.90;;;;;;5006416;28;20043;-79
2021/12/30 05:49:55;;;;;;;42.22;15.05;;;9.10;99.90;;;;;;4984107;28;20140;-80
2021/12/30 05:52:21;;;;;;;48.03;15.18;;;9.20;99.90;;;;;;5010230;28;20050;-79
2021/12/30 05:54:48;;;;;;;47.63;16.02;;;9.30;99.90;;;;;;4986640;28;20057;-79
2021/12/30 05:57:14;;;;;;;55.08;15.73;;;9.40;99.90;;;;;;5010446;28;20057;-79
2021/12/30 05:59:41;;;;;;;50.65;14.93;;;9.40;99.90;;;;;;4992180;28;20046;-79
2021/12/30 06:02:07;;;;;;;61.10;14.88;;;9.40;99.90;;;;;;4979943;28;20058;-79
2021/12/30 06:04:34;;;;;;;42.08;15.35;;;9.50;99.90;;;;;;4991727;28;20486;-79
2021/12/30 06:07:00;;;;;;;43.00;13.80;;;9.50;99.90;;;;;;4986909;28;20056;-79
2021/12/30 06:09:27;;;;;;;38.08;14.75;;;9.60;99.90;;;;;;4994348;28;20054;-79
2021/12/30 06:11:54;;;;;;;38.00;13.52;;;9.60;99.90;;;;;;5007192;28;20059;-79
2021/12/30 06:14:20;;;;;;;42.80;13.40;;;9.60;99.90;;;;;;4992993;28;20404;-79
2021/12/30 06:16:47;;;;;;;43.33;14.23;;;9.60;99.90;;;;;;4992368;28;20489;-80
2021/12/30 06:19:13;;;;;;;36.20;14.00;;;9.60;99.90;;;;;;4981937;28;20477;-79
2021/12/30 06:21:40;;;;;;;50.35;13.82;;;9.70;99.90;;;;;;4988726;28;20054;-79
2021/12/30 06:24:06;;;;;;;39.03;13.30;;;9.60;99.90;;;;;;4990731;28;20042;-78
2021/12/30 06:26:33;;;;;;;34.60;12.32;;;9.70;99.90;;;;;;5005300;28;20049;-80
2021/12/30 06:28:59;;;;;;;34.10;11.45;;;9.70;99.90;;;;;;4994482;28;20053;-79
2021/12/30 06:31:26;;;;;;;37.00;13.57;;;9.70;99.90;;;;;;4991808;28;20054;-79
2021/12/30 06:33:52;;;;;;;28.65;12.93;;;9.80;99.90;;;;;;4992282;28;20093;-80
2021/12/30 06:36:21;;;;;;;35.95;11.70;;;9.80;99.90;;;;;;4986703;28;20572;-79
2021/12/30 06:38:47;;;;;;;29.48;11.90;;;9.80;99.90;;;;;;4993603;28;20129;-80
2021/12/30 06:41:14;;;;;;;27.67;11.13;;;9.80;99.90;;;;;;4992442;28;20085;-79
2021/12/30 06:43:41;;;;;;;25.98;10.55;;;9.80;99.90;;;;;;4993871;28;20053;-79
2021/12/30 06:46:09;;;;;;;28.23;11.38;;;9.80;99.90;;;;;;4993858;28;20085;-79
2021/12/30 06:48:36;;;;;;;29.60;12.15;;;9.90;99.90;;;;;;4992449;28;20058;-80
2021/12/30 06:51:04;;;;;;;20.70;10.77;;;10.00;99.90;;;;;;4990215;28;20047;-80
2021/12/30 06:53:31;;;;;;;20.33;10.23;;;9.90;99.90;;;;;;4993145;28;20129;-79
2021/12/30 06:55:58;;;;;;;27.52;10.90;;;10.00;99.90;;;;;;4992578;28;20058;-80
2021/12/30 06:58:24;;;;;;;21.90;10.05;;;10.00;99.90;;;;;;4994031;28;20064;-80
2021/12/30 07:00:51;;;;;;;28.85;12.20;;;10.00;99.90;;;;;;4993087;28;20081;-80
2021/12/30 07:03:18;;;;;;;21.63;11.68;;;10.10;99.90;;;;;;4993570;28;20421;-80
2021/12/30 07:05:44;;;;;;;28.80;12.68;;;10.10;99.90;;;;;;4992138;28;20433;-79
2021/12/30 07:08:11;;;;;;;33.05;12.82;;;10.10;99.90;;;;;;5011915;28;20631;-80
2021/12/30 07:10:37;;;;;;;28.42;13.10;;;10.30;99.90;;;;;;4993638;28;20065;-80
2021/12/30 07:13:04;;;;;;;32.33;13.82;;;10.20;99.90;;;;;;4992077;28;20054;-80
2021/12/30 07:15:30;;;;;;;33.33;15.23;;;10.30;99.90;;;;;;4993182;28;20046;-80
2021/12/30 07:17:57;;;;;;;35.30;14.52;;;10.40;99.90;;;;;;4993447;28;20053;-80
2021/12/30 07:20:24;;;;;;;44.70;16.15;;;10.40;99.90;;;;;;4993500;28;20050;-80
2021/12/30 07:22:50;;;;;;;41.58;15.95;;;10.40;99.90;;;;;;4994172;28;20052;-80
2021/12/30 07:25:17;;;;;;;32.47;15.07;;;10.50;99.90;;;;;;5008790;28;20042;-79
2021/12/30 07:27:43;;;;;;;30.30;14.93;;;10.50;99.90;;;;;;4992971;28;20046;-80
2021/12/30 07:30:10;;;;;;;43.83;14.48;;;10.50;99.90;;;;;;4993196;28;20054;-80
2021/12/30 07:32:49;;;;;;;34.40;14.65;;;10.50;99.90;;;;;;5106315;27;1429575;-80
2021/12/30 07:35:16;;;;;;;35.53;14.82;;;10.50;99.90;;;;;;5124163;27;20082;-80
2021/12/30 07:37:42;;;;;;;35.35;14.20;;;10.60;99.90;;;;;;5114260;27;20423;-80
2021/12/30 07:40:09;;;;;;;43.78;15.45;;;10.60;99.90;;;;;;5129933;27;20054;-80
2021/12/30 07:42:35;;;;;;;38.80;16.08;;;10.60;99.90;;;;;;5126495;27;20047;-80
2021/12/30 07:45:02;;;;;;;29.33;14.38;;;10.70;99.90;;;;;;5130610;27;20043;-80
2021/12/30 07:47:28;;;;;;;29.50;13.95;;;10.60;99.90;;;;;;5115358;27;20043;-79
2021/12/30 07:49:55;;;;;;;32.83;14.90;;;10.70;99.90;;;;;;5113025;27;20067;-81
2021/12/30 07:52:21;;;;;;;28.58;14.25;;;10.70;99.90;;;;;;5129197;27;20039;-80
2021/12/30 07:54:48;;;;;;;27.23;13.02;;;10.70;99.90;;;;;;5131080;27;20051;-80
2021/12/30 07:57:18;;;;;;;26.58;12.68;;;10.70;99.90;;;;;;5111126;27;20032;-80
2021/12/30 07:59:44;;;;;;;23.10;11.67;;;10.70;99.90;;;;;;5112054;27;20060;-80
2021/12/30 08:02:11;;;;;;;20.75;10.63;;;10.70;99.90;;;;;;5112914;27;20636;-80
2021/12/30 08:04:37;;;;;;;20.23;9.90;;;10.60;99.90;;;;;;5116333;27;20039;-80
2021/12/30 08:07:04;;;;;;;20.45;11.55;;;10.70;99.90;;;;;;5110441;27;20043;-80
2021/12/30 08:09:30;;;;;;;23.95;9.75;;;10.70;99.90;;;;;;5114207;27;20047;-80
2021/12/30 08:11:59;;;;;;;19.00;9.55;;;10.70;99.90;;;;;;5130156;27;20039;-81
2021/12/30 08:14:26;;;;;;;21.92;10.32;;;10.80;99.90;;;;;;5115592;27;20054;-79
2021/12/30 08:16:52;;;;;;;17.63;8.63;;;10.70;99.90;;;;;;5113749;27;20051;-80
2021/12/30 08:19:19;;;;;;;17.58;8.30;;;10.70;99.90;;;;;;5134263;27;20489;-80
2021/12/30 08:21:45;;;;;;;18.77;7.82;;;10.80;99.90;;;;;;5136508;27;20494;-80
2021/12/30 08:24:12;;;;;;;14.10;7.72;;;10.90;99.90;;;;;;5124665;27;20485;-81
2021/12/30 08:26:39;;;;;;;15.02;7.43;;;10.90;99.90;;;;;;5123825;27;20046;-82
2021/12/30 08:29:05;;;;;;;11.15;6.47;;;10.90;99.90;;;;;;5144428;27;20054;-79
2021/12/30 08:31:32;;;;;;;15.13;7.97;;;10.90;99.90;;;;;;5120820;27;20043;-80
2021/12/30 08:33:58;;;;;;;10.50;5.78;;;10.90;99.90;;;;;;5116587;27;20130;-80
2021/12/30 08:36:25;;;;;;;9.43;4.57;;;10.90;99.90;;;;;;5126838;27;20406;-78
2021/12/30 08:38:51;;;;;;;8.60;6.25;;;11.00;99.90;;;;;;5135970;27;20043;-80
2021/12/30 08:41:18;;;;;;;5.75;4.03;;;11.00;99.90;;;;;;5115850;27;20058;-80
2021/12/30 08:43:44;;;;;;;9.65;4.15;;;11.00;99.90;;;;;;5117667;27;20059;-79
2021/12/30 08:46:11;;;;;;;7.03;4.03;;;11.10;99.90;;;;;;5099562;27;20420;-79
2021/12/30 08:48:37;;;;;;;5.50;3.83;;;11.10;99.90;;;;;;5118893;27;20402;-79
2021/12/30 08:51:04;;;;;;;6.70;3.53;;;11.10;99.90;;;;;;5100862;27;20043;-79
2021/12/30 08:53:31;;;;;;;5.78;2.92;;;11.10;99.90;;;;;;5103884;27;20054;-80
2021/12/30 08:55:57;;;;;;;4.18;3.10;;;11.10;99.90;;;;;;5105834;27;20055;-80
2021/12/30 08:58:24;;;;;;;4.65;3.05;;;11.10;99.90;;;;;;5097020;27;20433;-79
2021/12/30 09:00:50;;;;;;;5.50;3.00;;;11.10;99.90;;;;;;5122101;27;20753;-80
2021/12/30 09:03:17;;;;;;;4.97;2.58;;;11.10;99.90;;;;;;5123500;27;20039;-79
2021/12/30 09:05:43;;;;;;;4.47;2.63;;;11.10;99.90;;;;;;5108418;27;20062;-79
2021/12/30 09:08:10;;;;;;;2.30;1.98;;;11.20;99.90;;;;;;5121493;27;20054;-79
2021/12/30 09:10:40;;;;;;;3.65;2.65;;;11.20;99.90;;;;;;5100858;27;20051;-80
2021/12/30 09:13:07;;;;;;;3.05;2.00;;;11.30;99.90;;;;;;5116876;27;20122;-80
2021/12/30 09:15:34;;;;;;;2.63;2.05;;;11.30;99.90;;;;;;5096769;28;20047;-79
2021/12/30 09:18:01;;;;;;;1.80;1.60;;;11.20;99.90;;;;;;5100884;27;20043;-80
2021/12/30 09:20:28;;;;;;;2.85;1.52;;;11.30;99.90;;;;;;5119248;27;20122;-80
2021/12/30 09:22:54;;;;;;;1.98;1.83;;;11.30;99.90;;;;;;5099707;27;20039;-80
2021/12/30 09:25:23;;;;;;;5.07;2.08;;;11.20;99.90;;;;;;5117896;27;20047;-80
2021/12/30 09:27:50;;;;;;;10.35;2.60;;;11.30;99.90;;;;;;5096566;27;20478;-80
2021/12/30 09:30:16;;;;;;;3.83;2.80;;;11.30;99.90;;;;;;5098853;27;20044;-81
2021/12/30 09:32:43;;;;;;;3.88;2.70;;;11.30;99.90;;;;;;5115369;27;20487;-80
2021/12/30 09:35:12;;;;;;;5.65;3.20;;;11.40;99.90;;;;;;5107264;28;20044;-80
2021/12/30 09:37:38;;;;;;;5.32;3.63;;;11.40;99.90;;;;;;5098498;27;20114;-80
2021/12/30 09:40:13;;;;;;;5.25;4.32;;;11.40;99.90;;;;;;5106096;27;20055;-80
2021/12/30 09:42:51;;;;;;;5.00;3.22;;;11.50;99.90;;;;;;5116269;28;20059;-81
2021/12/30 09:45:18;;;;;;;9.48;4.18;;;11.50;99.90;;;;;;5113132;27;20217;-81
2021/12/30 09:47:47;;;;;;;9.40;4.57;;;11.50;99.90;;;;;;5114510;27;20195;-81
2021/12/30 09:50:14;;;;;;;11.23;5.53;;;11.60;99.90;;;;;;5100597;27;20059;-81
2021/12/30 09:52:40;;;;;;;6.88;5.15;;;11.60;99.90;;;;;;5110916;27;20769;-81
2021/12/30 09:55:07;;;;;;;6.00;4.00;;;11.50;99.90;;;;;;5105404;27;20428;-81
2021/12/30 09:57:33;;;;;;;7.90;4.65;;;11.60;99.90;;;;;;5106129;27;20064;-81
2021/12/30 10:00:00;;;;;;;8.68;4.30;;;11.70;99.90;;;;;;5128505;27;20478;-81
2021/12/30 10:02:26;;;;;;;9.05;4.65;;;11.70;99.90;;;;;;5098469;28;20047;-80
2021/12/30 10:04:53;;;;;;;10.38;4.05;;;11.70;99.90;;;;;;5102372;27;20526;-81
2021/12/30 10:07:19;;;;;;;8.23;3.50;;;11.80;99.90;;;;;;5101957;27;20047;-80
2021/12/30 10:09:50;;;;;;;8.88;2.80;;;11.80;99.90;;;;;;5102374;27;20401;-80
2021/12/30 10:12:17;;;;;;;9.43;3.35;;;11.80;99.90;;;;;;5096704;27;20075;-81
2021/12/30 10:14:43;;;;;;;6.78;2.83;;;11.80;99.90;;;;;;5098378;28;20058;-80
2021/12/30 10:17:10;;;;;;;8.20;3.63;;;11.80;99.90;;;;;;5104653;27;20055;-81
2021/12/30 10:19:36;;;;;;;8.90;4.35;;;11.90;99.90;;;;;;5098150;27;20372;-81
2021/12/30 10:22:03;;;;;;;10.23;3.72;;;11.90;99.90;;;;;;5104754;28;20056;-81
2021/12/30 10:24:30;;;;;;;7.78;3.88;;;11.90;99.90;;;;;;5101221;27;20489;-80
2021/12/30 10:26:56;;;;;;;8.10;4.75;;;11.90;99.90;;;;;;5098908;27;20074;-80
2021/12/30 10:29:23;;;;;;;8.13;4.13;;;11.90;99.90;;;;;;5109079;27;20488;-80
2021/12/30 10:31:50;;;;;;;9.38;4.43;;;11.90;99.90;;;;;;5101102;27;20059;-81
2021/12/30 10:34:17;;;;;;;7.68;4.53;;;11.90;99.90;;;;;;5110003;27;20047;-81
2021/12/30 10:36:45;;;;;;;10.82;5.18;;;11.90;99.90;;;;;;5125716;27;20047;-80
2021/12/30 10:39:11;;;;;;;8.18;5.20;;;11.90;99.90;;;;;;5113204;27;20047;-81
2021/12/30 10:41:38;;;;;;;13.65;5.82;;;11.90;99.90;;;;;;5104272;27;20055;-81
2021/12/30 10:44:04;;;;;;;13.40;4.78;;;11.80;99.90;;;;;;5124646;27;20508;-81
2021/12/30 10:46:31;;;;;;;9.50;4.93;;;11.80;99.90;;;;;;5121300;27;20514;-81
2021/12/30 10:48:58;;;;;;;8.43;4.85;;;11.80;99.90;;;;;;5110016;27;20561;-81
2021/12/30 10:51:24;;;;;;;9.80;5.47;;;11.80;99.90;;;;;;5099353;28;20409;-81
2021/12/30 10:53:51;;;;;;;19.70;5.30;;;11.80;99.90;;;;;;5121387;27;20052;-79
2021/12/30 10:56:17;;;;;;;10.95;4.78;;;11.80;99.90;;;;;;5102428;27;20039;-81
2021/12/30 10:58:44;;;;;;;12.57;4.65;;;11.80;99.90;;;;;;5105662;27;20054;-80
2021/12/30 11:01:10;;;;;;;14.82;5.72;;;11.80;99.90;;;;;;5098225;28;20036;-80
2021/12/30 11:03:42;;;;;;;8.20;5.07;;;11.80;99.90;;;;;;5103496;27;20057;-80
2021/12/30 11:06:09;;;;;;;15.63;5.65;;;11.80;99.90;;;;;;5096289;28;20128;-80
2021/12/30 11:08:35;;;;;;;16.00;5.93;;;11.70;99.90;;;;;;5098770;27;20163;-80
2021/12/30 11:11:05;;;;;;;19.13;5.38;;;11.70;99.90;;;;;;5108350;28;20055;-80
2021/12/30 11:13:32;;;;;;;18.38;5.78;;;11.70;99.90;;;;;;5096511;28;20117;-81
2021/12/30 11:15:59;;;;;;;18.38;5.63;;;11.70;99.90;;;;;;5098791;27;20078;-81
2021/12/30 11:18:26;;;;;;;17.52;7.03;;;11.70;99.90;;;;;;5105076;28;20402;-80
2021/12/30 11:20:52;;;;;;;25.15;7.40;;;11.70;99.90;;;;;;5102442;27;20051;-80
2021/12/30 11:23:19;;;;;;;20.30;7.25;;;11.70;99.90;;;;;;5112354;27;20509;-80
2021/12/30 11:25:47;;;;;;;18.90;6.85;;;11.70;99.90;;;;;;5096023;28;20143;-80
2021/12/30 11:28:14;;;;;;;20.67;7.20;;;11.80;99.90;;;;;;5111762;27;20061;-81
2021/12/30 11:30:40;;;;;;;21.85;6.55;;;11.80;99.90;;;;;;5115030;28;20055;-81
2021/12/30 11:33:07;;;;;;;16.55;5.93;;;11.80;99.90;;;;;;5103170;28;20131;-80
2021/12/30 11:35:33;;;;;;;22.15;7.53;;;11.80;99.90;;;;;;5102540;28;20284;-80
2021/12/30 11:38:01;;;;;;;22.05;7.15;;;11.80;99.90;;;;;;5106663;28;20117;-81
2021/12/30 11:40:27;;;;;;;23.08;7.75;;;11.70;99.90;;;;;;5102375;28;20060;-80
2021/12/30 11:42:56;;;;;;;21.85;7.35;;;11.70;99.90;;;;;;5108486;28;20059;-80
2021/12/30 11:45:22;;;;;;;21.75;7.45;;;11.70;99.90;;;;;;5098723;28;20470;-80
2021/12/30 11:47:49;;;;;;;32.55;9.43;;;11.70;99.90;;;;;;5119086;28;21266;-80
2021/12/30 11:50:15;;;;;;;24.75;9.65;;;11.70;99.90;;;;;;5101275;28;20498;-80
2021/12/30 11:52:42;;;;;;;31.50;9.10;;;11.70;99.90;;;;;;5118912;28;20052;-80
2021/12/30 11:55:08;;;;;;;31.88;10.00;;;11.70;99.90;;;;;;5101069;28;20048;-81
2021/12/30 11:57:36;;;;;;;21.75;8.05;;;11.70;99.90;;;;;;5113443;28;20052;-81
2021/12/30 12:00:03;;;;;;;27.20;9.82;;;11.70;99.90;;;;;;5103067;28;20044;-81
2021/12/30 12:02:29;;;;;;;33.38;8.52;;;11.70;99.90;;;;;;5099651;28;20051;-80
2021/12/30 12:04:56;;;;;;;37.83;9.13;;;11.70;99.90;;;;;;5117642;28;20040;-80
2021/12/30 12:07:23;;;;;;;40.65;10.18;;;11.70;99.90;;;;;;5114771;28;20513;-79
2021/12/30 12:09:49;;;;;;;46.13;8.75;;;11.70;99.90;;;;;;5096569;28;20055;-80
2021/12/30 12:12:16;;;;;;;31.85;9.57;;;11.70;99.90;;;;;;5121260;28;20043;-80
2021/12/30 12:14:45;;;;;;;31.98;9.73;;;11.70;99.90;;;;;;5118910;28;20057;-80
2021/12/30 12:17:11;;;;;;;31.02;8.90;;;11.70;99.90;;;;;;5092986;28;20070;-79
2021/12/30 12:19:38;;;;;;;27.90;7.60;;;11.60;99.90;;;;;;5101344;27;20246;-80
2021/12/30 12:22:04;;;;;;;30.25;9.55;;;11.70;99.90;;;;;;5105259;28;20079;-80
2021/12/30 12:24:32;;;;;;;40.83;9.05;;;11.70;99.90;;;;;;5102261;27;20069;-80
2021/12/30 12:26:58;;;;;;;33.47;11.15;;;11.70;99.90;;;;;;5106266;28;20047;-80
2021/12/30 12:29:25;;;;;;;34.97;9.07;;;11.70;99.90;;;;;;5094780;27;20924;-81
2021/12/30 12:31:51;;;;;;;38.03;9.60;;;11.70;99.90;;;;;;5104322;28;20058;-80
2021/12/30 12:34:18;;;;;;;44.25;10.90;;;11.70;99.90;;;;;;5095595;27;20058;-81
2021/12/30 12:36:44;;;;;;;38.10;9.20;;;11.70;99.90;;;;;;5095272;28;20068;-80
2021/12/30 12:39:11;;;;;;;27.92;9.68;;;11.70;99.90;;;;;;5121715;27;20043;-80